createdAt,value
2022-08-22T00:00:17.836Z,20.52
2022-08-22T00:02:45.887Z,22.64
2022-08-22T00:02:53.534Z,22.56
2022-08-22T00:03:04.492Z,22.57
2022-08-22T00:03:09.768Z,22.36
2022-08-22T00:06:00.908Z,20.38
2022-08-22T00:08:41.056Z,20.27
2022-08-22T00:11:26.111Z,20.18
2022-08-22T00:14:01.753Z,20.10
2022-08-22T00:16:45.639Z,20.00
2022-08-22T00:19:52.847Z,19.97
2022-08-22T00:22:25.619Z,19.93
2022-08-22T00:25:07.538Z,19.84
2022-08-22T00:28:04.896Z,19.81
2022-08-22T00:30:42.952Z,19.84
2022-08-22T00:33:25.805Z,19.91
2022-08-22T00:36:15.144Z,20.04
2022-08-22T00:38:57.709Z,20.11
2022-08-22T00:41:44.421Z,20.11
2022-08-22T00:44:51.923Z,20.08
2022-08-22T00:47:45.982Z,20.04
2022-08-22T00:50:51.590Z,20.06
2022-08-22T00:53:25.263Z,20.07
2022-08-22T00:56:24.946Z,20.01
2022-08-22T00:59:23.683Z,19.93
2022-08-22T01:01:57.217Z,19.87
2022-08-22T01:05:07.708Z,19.83
2022-08-22T01:08:13.856Z,19.80
2022-08-22T01:10:51.480Z,19.77
2022-08-22T01:13:36.643Z,19.69
2022-08-22T01:16:24.634Z,19.69
2022-08-22T01:19:44.646Z,19.73
2022-08-22T01:22:34.595Z,19.71
2022-08-22T01:25:22.493Z,19.66
2022-08-22T01:28:22.845Z,19.62
2022-08-22T01:31:28.692Z,19.60
2022-08-22T01:34:24.967Z,19.50
2022-08-22T01:37:29.700Z,19.55
2022-08-22T01:40:24.826Z,19.59
2022-08-22T01:43:51.312Z,19.62
2022-08-22T01:46:23.330Z,19.66
2022-08-22T01:49:09.424Z,19.71
2022-08-22T01:51:37.277Z,19.69
2022-08-22T01:54:34.438Z,19.70
2022-08-22T01:57:07.999Z,19.73
2022-08-22T01:59:59.319Z,19.55
2022-08-22T02:02:26.884Z,19.58
2022-08-22T02:05:26.769Z,19.62
2022-08-22T02:07:58.856Z,19.59
2022-08-22T02:11:04.399Z,19.53
2022-08-22T02:13:48.912Z,19.50
2022-08-22T02:16:31.660Z,19.43
2022-08-22T02:19:15.029Z,19.42
2022-08-22T02:22:22.618Z,19.45
2022-08-22T02:25:12.967Z,19.45
2022-08-22T02:28:13.638Z,19.36
2022-08-22T02:31:06.157Z,19.39
2022-08-22T02:33:53.839Z,19.33
2022-08-22T02:36:44.940Z,19.36
2022-08-22T02:39:18.571Z,19.32
2022-08-22T02:41:53.320Z,19.23
2022-08-22T02:44:27.260Z,19.14
2022-08-22T02:47:15.394Z,19.01
2022-08-22T02:50:21.958Z,18.88
2022-08-22T02:53:13.203Z,18.70
2022-08-22T02:56:13.534Z,18.63
2022-08-22T02:59:05.020Z,18.56
2022-08-22T03:01:41.102Z,18.52
2022-08-22T03:04:45.682Z,18.46
2022-08-22T03:07:19.883Z,18.32
2022-08-22T03:10:14.594Z,18.16
2022-08-22T03:13:08.382Z,18.05
2022-08-22T03:16:04.592Z,17.94
2022-08-22T03:18:43.849Z,17.92
2022-08-22T03:21:32.162Z,17.92
2022-08-22T03:24:49.447Z,17.82
2022-08-22T03:27:32.713Z,17.78
2022-08-22T03:30:20.125Z,17.78
2022-08-22T03:33:18.268Z,17.75
2022-08-22T03:35:46.039Z,17.73
2022-08-22T03:38:33.254Z,17.71
2022-08-22T03:41:31.693Z,17.67
2022-08-22T03:44:19.598Z,17.65
2022-08-22T03:47:08.438Z,17.60
2022-08-22T03:49:58.921Z,17.54
2022-08-22T03:53:19.478Z,17.47
2022-08-22T03:56:05.644Z,17.50
2022-08-22T03:59:01.030Z,17.53
2022-08-22T04:01:42.812Z,17.55
2022-08-22T04:04:43.242Z,17.60
2022-08-22T04:07:35.683Z,17.60
2022-08-22T04:10:17.053Z,17.37
2022-08-22T04:13:27.466Z,17.19
2022-08-22T04:16:36.044Z,17.16
2022-08-22T04:19:25.245Z,17.22
2022-08-22T04:22:31.569Z,17.20
2022-08-22T04:25:25.710Z,17.20
2022-08-22T04:28:05.165Z,17.24
2022-08-22T04:30:43.043Z,17.23
2022-08-22T04:33:23.031Z,17.22
2022-08-22T04:36:01.457Z,17.20
2022-08-22T04:38:47.825Z,17.19
2022-08-22T04:42:34.870Z,17.19
2022-08-22T04:45:35.156Z,17.27
2022-08-22T04:48:27.654Z,17.37
2022-08-22T04:51:27.476Z,17.47
2022-08-22T04:54:14.218Z,17.50
2022-08-22T04:57:03.079Z,17.53
2022-08-22T04:59:34.185Z,17.58
2022-08-22T05:02:07.166Z,17.61
2022-08-22T05:04:49.949Z,17.60
2022-08-22T05:07:24.812Z,17.54
2022-08-22T05:09:59.802Z,17.55
2022-08-22T05:12:48.289Z,17.57
2022-08-22T05:15:28.756Z,17.63
2022-08-22T05:18:02.790Z,17.65
2022-08-22T05:20:31.705Z,17.65
2022-08-22T05:23:16.959Z,17.71
2022-08-22T05:25:53.231Z,17.82
2022-08-22T05:28:31.414Z,17.92
2022-08-22T05:31:01.264Z,18.19
2022-08-22T05:33:36.087Z,18.78
2022-08-22T05:36:18.135Z,18.91
2022-08-22T05:39:06.076Z,18.88
2022-08-22T05:41:37.494Z,19.07
2022-08-22T05:44:17.454Z,19.38
2022-08-22T05:47:00.108Z,19.71
2022-08-22T05:49:39.858Z,20.21
2022-08-22T05:52:30.029Z,21.61
2022-08-22T05:55:15.612Z,22.94
2022-08-22T05:57:52.585Z,23.88
2022-08-22T06:00:25.982Z,24.77
2022-08-22T06:03:17.586Z,25.26
2022-08-22T06:05:51.975Z,25.84
2022-08-22T06:08:34.751Z,26.75
2022-08-22T06:11:16.273Z,27.23
2022-08-22T06:14:42.794Z,28.27
2022-08-22T06:17:20.743Z,29.06
2022-08-22T06:19:53.158Z,28.84
2022-08-22T06:22:34.494Z,29.21
2022-08-22T06:25:17.172Z,28.28
2022-08-22T06:27:49.325Z,28.35
2022-08-22T06:30:19.451Z,29.33
2022-08-22T06:33:00.210Z,29.34
2022-08-22T06:36:05.834Z,27.66
2022-08-22T06:38:56.373Z,26.37
2022-08-22T06:41:30.752Z,25.52
2022-08-22T06:44:02.688Z,24.82
2022-08-22T06:46:35.892Z,24.65
2022-08-22T06:49:07.456Z,24.34
2022-08-22T06:51:39.025Z,24.53
2022-08-22T06:54:17.630Z,25.13
2022-08-22T06:56:51.108Z,26.51
2022-08-22T06:59:27.722Z,27.64
2022-08-22T07:02:38.887Z,26.99
2022-08-22T07:05:15.298Z,26.09
2022-08-22T07:07:43.730Z,24.92
2022-08-22T07:10:18.815Z,23.83
2022-08-22T07:12:52.802Z,23.43
2022-08-22T07:15:37.192Z,23.56
2022-08-22T07:18:16.295Z,23.59
2022-08-22T07:20:55.261Z,23.67
2022-08-22T07:23:41.399Z,23.73
2022-08-22T07:27:06.836Z,23.67
2022-08-22T07:30:10.168Z,23.74
2022-08-22T07:33:25.928Z,23.92
2022-08-22T07:36:01.887Z,24.08
2022-08-22T07:38:43.740Z,24.01
2022-08-22T07:41:24.267Z,24.01
2022-08-22T07:44:03.855Z,24.05
2022-08-22T07:47:02.173Z,23.96
2022-08-22T07:49:54.853Z,23.98
2022-08-22T07:52:25.295Z,23.83
2022-08-22T07:55:14.945Z,23.78
2022-08-22T07:57:53.130Z,23.36
2022-08-22T08:00:23.602Z,23.29
2022-08-22T08:02:58.913Z,23.26
2022-08-22T08:05:31.476Z,23.29
2022-08-22T08:08:02.748Z,23.39
2022-08-22T08:10:35.745Z,23.45
2022-08-22T08:13:15.160Z,23.42
2022-08-22T08:15:45.910Z,22.95
2022-08-22T08:18:22.116Z,22.95
2022-08-22T08:20:58.151Z,22.86
2022-08-22T08:23:39.593Z,22.97
2022-08-22T08:26:35.581Z,22.94
2022-08-22T08:29:06.090Z,22.63
2022-08-22T08:31:44.937Z,22.75
2022-08-22T08:34:21.654Z,23.05
2022-08-22T08:37:04.822Z,23.33
2022-08-22T08:39:53.531Z,23.46
2022-08-22T08:42:59.799Z,23.53
2022-08-22T08:45:59.079Z,23.39
2022-08-22T08:48:59.889Z,23.30
2022-08-22T08:52:08.151Z,23.30
2022-08-22T08:54:48.973Z,23.43
2022-08-22T08:58:06.650Z,23.76
2022-08-22T09:00:59.397Z,24.11
2022-08-22T09:03:52.828Z,24.38
2022-08-22T09:06:42.565Z,24.55
2022-08-22T09:09:39.150Z,25.13
2022-08-22T09:12:16.646Z,25.07
2022-08-22T09:15:20.496Z,25.11
2022-08-22T09:18:33.317Z,25.49
2022-08-22T09:21:43.697Z,25.31
2022-08-22T09:24:38.677Z,25.89
2022-08-22T09:27:24.479Z,25.71
2022-08-22T09:30:18.229Z,25.92
2022-08-22T09:33:04.414Z,26.44
2022-08-22T09:36:05.268Z,26.40
2022-08-22T09:38:38.638Z,26.16
2022-08-22T09:41:24.529Z,25.81
2022-08-22T09:44:30.725Z,26.00
2022-08-22T09:47:24.691Z,26.73
2022-08-22T09:50:14.447Z,27.09
2022-08-22T09:53:08.932Z,27.21
2022-08-22T09:56:00.709Z,27.40
2022-08-22T09:59:01.435Z,27.81
2022-08-22T10:01:49.232Z,27.71
2022-08-22T10:04:55.428Z,27.87
2022-08-22T10:07:57.070Z,27.91
2022-08-22T10:10:34.307Z,28.05
2022-08-22T10:13:22.065Z,27.90
2022-08-22T10:16:11.877Z,27.96
2022-08-22T10:18:53.756Z,27.91
2022-08-22T10:22:05.076Z,27.86
2022-08-22T10:24:49.402Z,27.98
2022-08-22T10:27:44.944Z,27.32
2022-08-22T10:30:31.074Z,27.77
2022-08-22T10:33:32.648Z,27.32
2022-08-22T10:36:32.105Z,27.96
2022-08-22T10:39:09.475Z,27.94
2022-08-22T10:42:19.350Z,28.01
2022-08-22T10:45:14.957Z,27.84
2022-08-22T10:48:23.278Z,27.33
2022-08-22T10:51:24.810Z,28.07
2022-08-22T10:54:28.577Z,28.97
2022-08-22T10:57:20.545Z,29.55
2022-08-22T11:00:17.433Z,29.85
2022-08-22T11:03:01.254Z,29.23
2022-08-22T11:05:50.014Z,28.95
2022-08-22T11:09:00.308Z,28.95
2022-08-22T11:11:39.646Z,29.17
2022-08-22T11:14:36.295Z,29.38
2022-08-22T11:17:30.273Z,30.41
2022-08-22T11:20:10.339Z,30.65
2022-08-22T11:22:59.154Z,30.30
2022-08-22T11:25:54.012Z,30.89
2022-08-22T11:29:13.612Z,30.54
2022-08-22T11:32:07.726Z,30.19
2022-08-22T11:34:57.420Z,30.02
2022-08-22T11:37:56.381Z,29.92
2022-08-22T11:40:45.822Z,29.85
2022-08-22T11:43:26.642Z,29.39
2022-08-22T11:46:01.711Z,29.41
2022-08-22T11:49:15.944Z,29.58
2022-08-22T11:52:12.312Z,30.01
2022-08-22T11:55:09.291Z,30.27
2022-08-22T11:57:44.962Z,30.78
2022-08-22T12:00:15.004Z,31.18
2022-08-22T12:02:47.600Z,31.84
2022-08-22T12:05:31.371Z,32.35
2022-08-22T12:08:51.569Z,32.22
2022-08-22T12:11:30.072Z,31.03
2022-08-22T12:14:27.041Z,30.64
2022-08-22T12:17:55.687Z,30.36
2022-08-22T12:20:21.815Z,30.27
2022-08-22T12:23:09.545Z,30.36
2022-08-22T12:26:05.162Z,30.23
2022-08-22T12:29:18.043Z,29.85
2022-08-22T12:31:59.740Z,29.96
2022-08-22T12:35:14.535Z,30.10
2022-08-22T12:38:01.307Z,29.45
2022-08-22T12:40:48.697Z,29.37
2022-08-22T12:43:52.168Z,29.62
2022-08-22T12:46:38.665Z,29.62
2022-08-22T12:49:54.839Z,29.79
2022-08-22T12:52:48.777Z,29.90
2022-08-22T12:55:32.184Z,30.45
2022-08-22T12:58:29.478Z,30.84
2022-08-22T13:01:09.056Z,30.78
2022-08-22T13:03:56.284Z,30.60
2022-08-22T13:06:36.752Z,30.63
2022-08-22T13:09:28.940Z,30.71
2022-08-22T13:12:35.920Z,30.77
2022-08-22T13:15:29.149Z,30.64
2022-08-22T13:18:19.002Z,30.61
2022-08-22T13:20:55.548Z,30.85
2022-08-22T13:23:34.354Z,30.68
2022-08-22T13:26:31.846Z,30.06
2022-08-22T13:29:25.703Z,29.39
2022-08-22T13:32:02.203Z,29.68
2022-08-22T13:34:43.737Z,29.79
2022-08-22T13:37:24.495Z,29.76
2022-08-22T13:40:00.385Z,29.88
2022-08-22T13:42:33.960Z,30.34
2022-08-22T13:45:22.255Z,30.60
2022-08-22T13:48:03.730Z,30.53
2022-08-22T13:50:55.138Z,30.72
2022-08-22T13:53:50.075Z,30.99
2022-08-22T13:57:03.013Z,30.84
2022-08-22T13:59:59.465Z,30.60
2022-08-22T14:02:53.932Z,30.20
2022-08-22T14:05:31.634Z,30.33
2022-08-22T14:08:19.578Z,30.67
2022-08-22T14:11:12.435Z,31.02
2022-08-22T14:13:59.286Z,30.50
2022-08-22T14:16:34.665Z,30.48
2022-08-22T14:19:09.603Z,30.77
2022-08-22T14:21:59.600Z,30.95
2022-08-22T14:24:45.847Z,30.36
2022-08-22T14:27:27.476Z,30.51
2022-08-22T14:30:01.674Z,30.82
2022-08-22T14:32:55.426Z,30.80
2022-08-22T14:35:35.307Z,30.87
2022-08-22T14:38:17.167Z,30.85
2022-08-22T14:40:47.072Z,30.65
2022-08-22T14:43:30.697Z,30.40
2022-08-22T14:46:06.358Z,30.34
2022-08-22T14:49:05.643Z,30.54
2022-08-22T14:51:33.976Z,30.43
2022-08-22T14:54:21.412Z,30.30
2022-08-22T14:56:53.050Z,30.33
2022-08-22T14:59:43.606Z,30.53
2022-08-22T15:02:24.746Z,30.64
2022-08-22T15:04:55.570Z,30.68
2022-08-22T15:07:31.030Z,30.50
2022-08-22T15:10:11.931Z,30.23
2022-08-22T15:13:02.709Z,29.92
2022-08-22T15:15:52.958Z,29.93
2022-08-22T15:18:29.062Z,29.98
2022-08-22T15:21:24.407Z,29.66
2022-08-22T15:23:59.659Z,29.51
2022-08-22T15:26:36.364Z,29.62
2022-08-22T15:29:32.839Z,29.83
2022-08-22T15:32:04.076Z,29.88
2022-08-22T15:34:46.070Z,29.90
2022-08-22T15:37:20.765Z,29.96
2022-08-22T15:40:11.828Z,30.10
2022-08-22T15:42:54.080Z,30.05
2022-08-22T15:45:33.735Z,29.83
2022-08-22T15:48:07.132Z,29.88
2022-08-22T15:50:55.271Z,29.75
2022-08-22T15:53:29.416Z,29.79
2022-08-22T15:56:06.857Z,29.89
2022-08-22T15:58:48.680Z,30.03
2022-08-22T16:01:27.431Z,30.05
2022-08-22T16:04:07.854Z,30.01
2022-08-22T16:07:01.406Z,29.93
2022-08-22T16:09:43.526Z,29.69
2022-08-22T16:12:39.568Z,29.58
2022-08-22T16:15:56.328Z,29.51
2022-08-22T16:18:39.942Z,29.44
2022-08-22T16:21:36.561Z,29.24
2022-08-22T16:24:04.254Z,29.21
2022-08-22T16:26:31.744Z,29.30
2022-08-22T16:29:18.299Z,29.14
2022-08-22T16:31:49.105Z,29.07
2022-08-22T16:34:17.425Z,29.00
2022-08-22T16:37:11.710Z,28.93
2022-08-22T16:40:05.217Z,28.97
2022-08-22T16:42:43.587Z,29.06
2022-08-22T16:45:36.820Z,29.08
2022-08-22T16:48:24.457Z,28.92
2022-08-22T16:51:05.402Z,28.87
2022-08-22T16:53:38.977Z,28.83
2022-08-22T16:56:37.915Z,28.73
2022-08-22T16:59:23.528Z,28.60
2022-08-22T17:02:21.948Z,28.44
2022-08-22T17:05:02.673Z,28.39
2022-08-22T17:08:03.512Z,28.44
2022-08-22T17:11:06.149Z,28.37
2022-08-22T17:14:08.857Z,28.34
2022-08-22T17:17:04.663Z,28.27
2022-08-22T17:19:44.790Z,28.04
2022-08-22T17:22:32.479Z,27.98
2022-08-22T17:25:29.426Z,27.93
2022-08-22T17:28:23.812Z,28.00
2022-08-22T17:31:03.433Z,27.77
2022-08-22T17:34:08.563Z,27.83
2022-08-22T17:36:49.304Z,27.73
2022-08-22T17:39:43.091Z,27.71
2022-08-22T17:42:35.861Z,27.61
2022-08-22T17:45:19.251Z,27.60
2022-08-22T17:47:58.967Z,27.61
2022-08-22T17:50:46.845Z,27.54
2022-08-22T17:53:52.627Z,27.46
2022-08-22T17:56:41.368Z,27.45
2022-08-22T17:59:27.624Z,27.38
2022-08-22T18:02:27.049Z,27.33
2022-08-22T18:05:03.932Z,27.33
2022-08-22T18:07:53.818Z,27.31
2022-08-22T18:10:43.748Z,27.23
2022-08-22T18:13:20.844Z,27.16
2022-08-22T18:16:00.335Z,27.04
2022-08-22T18:18:33.489Z,26.98
2022-08-22T18:21:04.624Z,26.96
2022-08-22T18:24:18.417Z,26.90
2022-08-22T18:27:04.774Z,26.70
2022-08-22T18:29:49.862Z,26.61
2022-08-22T18:32:56.061Z,26.54
2022-08-22T18:35:31.316Z,26.57
2022-08-22T18:38:10.589Z,26.54
2022-08-22T18:40:56.731Z,26.41
2022-08-22T18:43:40.004Z,26.40
2022-08-22T18:46:51.973Z,26.26
2022-08-22T18:49:20.638Z,26.15
2022-08-22T18:52:07.431Z,26.10
2022-08-22T18:55:02.769Z,26.05
2022-08-22T18:58:05.952Z,25.93
2022-08-22T19:00:57.909Z,25.86
2022-08-22T19:03:38.795Z,25.77
2022-08-22T19:06:58.528Z,25.58
2022-08-22T19:09:35.459Z,25.45
2022-08-22T19:12:27.137Z,25.31
2022-08-22T19:15:07.921Z,25.17
2022-08-22T19:17:58.697Z,25.06
2022-08-22T19:20:51.519Z,24.96
2022-08-22T19:23:32.943Z,24.89
2022-08-22T19:26:26.086Z,24.83
2022-08-22T19:29:26.159Z,24.76
2022-08-22T19:32:02.970Z,24.71
2022-08-22T19:34:46.906Z,24.68
2022-08-22T19:37:31.011Z,24.58
2022-08-22T19:40:13.606Z,24.47
2022-08-22T19:42:46.885Z,24.38
2022-08-22T19:45:29.053Z,24.32
2022-08-22T19:48:13.669Z,24.25
2022-08-22T19:50:45.815Z,24.25
2022-08-22T19:53:36.792Z,24.25
2022-08-22T19:56:48.230Z,24.25
2022-08-22T19:59:40.020Z,24.24
2022-08-22T20:02:40.529Z,24.14
2022-08-22T20:05:32.000Z,24.07
2022-08-22T20:08:37.652Z,23.96
2022-08-22T20:11:28.960Z,23.88
2022-08-22T20:14:30.336Z,23.74
2022-08-22T20:17:26.854Z,23.65
2022-08-22T20:23:05.648Z,23.59
2022-08-22T20:25:51.090Z,23.56
2022-08-22T20:28:37.137Z,23.50
2022-08-22T20:31:14.576Z,23.52
2022-08-22T20:33:46.582Z,23.47
2022-08-22T20:36:27.559Z,23.47
2022-08-22T20:39:08.925Z,23.47
2022-08-22T20:41:47.296Z,23.43
2022-08-22T20:44:24.348Z,23.38
2022-08-22T20:46:55.204Z,23.38
2022-08-22T20:49:34.458Z,23.36
2022-08-22T20:52:10.959Z,23.29
2022-08-22T20:54:43.867Z,23.28
2022-08-22T20:57:19.326Z,23.23
2022-08-22T20:59:57.941Z,23.18
2022-08-22T21:02:35.621Z,23.14
2022-08-22T21:05:32.409Z,23.14
2022-08-22T21:08:07.263Z,23.30
2022-08-22T21:10:57.199Z,23.45
2022-08-22T21:13:36.371Z,23.50
2022-08-22T21:16:32.142Z,23.65
2022-08-22T21:19:04.034Z,23.70
2022-08-22T21:21:35.129Z,23.74
2022-08-22T21:24:06.762Z,23.80
2022-08-22T21:26:39.007Z,23.84
2022-08-22T21:29:08.851Z,23.84
2022-08-22T21:32:04.692Z,23.87
2022-08-22T21:34:42.719Z,23.88
2022-08-22T21:37:17.016Z,23.84
2022-08-22T21:39:51.859Z,23.86
2022-08-22T21:42:38.008Z,23.90
2022-08-22T21:45:07.747Z,24.03
2022-08-22T21:47:45.661Z,24.11
2022-08-22T21:50:31.775Z,24.15
2022-08-22T21:53:09.159Z,24.20
2022-08-22T21:55:43.653Z,24.18
2022-08-22T21:58:34.904Z,24.18
2022-08-22T22:01:29.170Z,24.07
2022-08-22T22:04:01.722Z,24.03
2022-08-22T22:06:30.724Z,23.98
2022-08-22T22:08:58.844Z,24.05
2022-08-22T22:11:26.585Z,24.01
2022-08-22T22:13:54.427Z,23.94
2022-08-22T22:16:30.312Z,23.87
2022-08-22T22:18:58.455Z,23.81
2022-08-22T22:21:26.216Z,23.81
2022-08-22T22:23:54.493Z,23.76
2022-08-22T22:26:26.690Z,23.66
2022-08-22T22:28:54.354Z,23.66
2022-08-22T22:31:21.999Z,23.57
2022-08-22T22:33:49.553Z,23.50
2022-08-22T22:36:23.357Z,23.42
2022-08-22T22:38:52.126Z,23.38
2022-08-22T22:41:25.366Z,23.32
2022-08-22T22:43:55.005Z,23.20
2022-08-22T22:46:23.717Z,23.07
2022-08-22T22:48:51.436Z,22.94
2022-08-22T22:51:19.173Z,22.77
2022-08-22T22:53:46.993Z,22.57
2022-08-22T22:56:21.685Z,22.56
2022-08-22T22:58:58.950Z,22.50
2022-08-22T23:01:29.542Z,22.41
2022-08-22T23:03:59.579Z,22.32
2022-08-22T23:06:33.773Z,22.22
2022-08-22T23:09:04.905Z,22.13
2022-08-22T23:11:32.783Z,22.02
2022-08-22T23:14:02.828Z,22.02
2022-08-22T23:16:36.987Z,21.98
2022-08-22T23:19:09.706Z,21.96
2022-08-22T23:21:37.274Z,21.96
2022-08-22T23:24:05.707Z,21.96
2022-08-22T23:26:33.793Z,21.96
2022-08-22T23:29:05.849Z,22.01
2022-08-22T23:31:35.678Z,22.03
2022-08-22T23:34:12.782Z,22.05
2022-08-22T23:36:45.917Z,22.01
2022-08-22T23:39:16.572Z,21.92
2022-08-22T23:41:46.461Z,21.79
2022-08-22T23:44:16.123Z,21.68
2022-08-22T23:46:44.453Z,21.61
2022-08-22T23:49:14.539Z,21.50
2022-08-22T23:51:44.073Z,21.48
2022-08-22T23:54:14.516Z,21.38
2022-08-22T23:56:47.262Z,21.31
2022-08-22T23:59:18.945Z,21.26
